Godman Army Air Field
KFTK : now visible

Airfield :











YOU CAN JOIN US ON...

 
LOGIN :

Register | Disclaimer

   EN    FR    IT 

 









Legend :    VFR   Marginal VFR   IFR   Intensive IFR   Very Intensive IFR
Visi :
Ceiling :
>= 8 km
>= 3000ft
5 to 8 km
1000 to 3000 ft
1500m to 5 km
500 to 1000 ft
800 to 1500m
200 to 500 ft
< 800m
< 200 ft
Symbols :   Thunderstorms  Fog  Heavy snow  Heavy precipitations  Wind > 20 kt






- Airport Elevation : 756 ft


KFTK - Godman Army Air Field

CURRENT METAR :
  • 250856Z AUTO 21008KT 10SM OVC014 01/00 A2996 RMK AO2 SLP153 T00081004 52008

EXPIRED METARs :
  • 250841Z AUTO 21007KT 10SM BKN013 BKN019 01/00 A2996 RMK AO2 CIG 013V020 BKN013 V SCT SLP153
  • 250811Z AUTO 24007KT 10SM OVC016 01/M01 A2996 RMK AO2 SLP153
  • 250756Z AUTO 24009KT 10SM OVC013 01/00 A2996 RMK AO2 SLP153 T00121001
  • 250656Z AUTO 24010KT 10SM OVC011 02/01 A2994 RMK AO2 SLP145 T00160007
  • 250641Z AUTO 24009KT 10SM OVC011 02/01 A2994 RMK AO2 SLP145
  • 250626Z AUTO 24010G19KT 10SM OVC009 02/01 A2994 RMK AO2 SLP145
  • 250611Z AUTO 24011G19KT 10SM OVC010 02/02 A2994 RMK AO2 SLP146

TAF TAF KFTK
Valid from the 25 at 09:00 until the 26 at 15:00 UTC


250900Z 2509/2615 25009KT 9999 OVC014 620208 QNH2993INS
BECMG 2509/2511 25010G15KT 9999 OVC015 620208 QNH2995INS
BECMG 2517/2518 25012G18KT 9999 OVC020 620208 QNH3000INS
BECMG 2523/2524 25009KT 9999 BKN020 620208 QNH3000INS TX04/2521Z TNM01/2609Z



MET'MAP, your aeronautical weather chart ! - Copyright ORBIFLY December 2007 - Disclaimer

ORBIFLY MET'MAP TEAM :

Programming & Development : Alexandra Zaïnal
Concept & original design : Baudouin d'Aumeries
Assistance for programming : Marc-Olivier Méhu
Technical & hardware support : Manuel Goepfert

Contact : metmap@orbifly.com




SOURCES & CREDITS :

   NOAA       Earth
Advisory